sensor_id;sensor_type;location;lat;lon;timestamp;P1;durP1;ratioP1;P2;durP2;ratioP2
15679;SDS011;15488;48.114;11.532;2023-03-12T00:00:22;6.03;;;4.00;;
15679;SDS011;15488;48.114;11.532;2023-03-12T00:02:50;9.43;;;4.97;;
15679;SDS011;15488;48.114;11.532;2023-03-12T00:05:17;6.33;;;4.13;;
15679;SDS011;15488;48.114;11.532;2023-03-12T00:07:44;4.33;;;3.10;;
15679;SDS011;15488;48.114;11.532;2023-03-12T00:10:12;3.80;;;2.83;;
15679;SDS011;15488;48.114;11.532;2023-03-12T00:12:39;3.30;;;2.60;;
15679;SDS011;15488;48.114;11.532;2023-03-12T00:15:09;6.30;;;3.90;;
15679;SDS011;15488;48.114;11.532;2023-03-12T00:17:36;9.47;;;5.87;;
15679;SDS011;15488;48.114;11.532;2023-03-12T00:20:04;10.23;;;5.67;;
15679;SDS011;15488;48.114;11.532;2023-03-12T00:22:32;4.07;;;2.63;;
15679;SDS011;15488;48.114;11.532;2023-03-12T00:24:59;3.47;;;2.40;;
15679;SDS011;15488;48.114;11.532;2023-03-12T00:27:27;4.90;;;2.53;;
15679;SDS011;15488;48.114;11.532;2023-03-12T00:29:56;5.13;;;3.03;;
15679;SDS011;15488;48.114;11.532;2023-03-12T00:32:25;3.10;;;2.60;;
15679;SDS011;15488;48.114;11.532;2023-03-12T00:34:53;4.23;;;2.70;;
15679;SDS011;15488;48.114;11.532;2023-03-12T00:37:21;3.90;;;2.90;;
15679;SDS011;15488;48.114;11.532;2023-03-12T00:39:48;3.03;;;2.17;;
15679;SDS011;15488;48.114;11.532;2023-03-12T00:42:16;2.63;;;2.20;;
15679;SDS011;15488;48.114;11.532;2023-03-12T00:44:44;2.80;;;2.30;;
15679;SDS011;15488;48.114;11.532;2023-03-12T00:47:12;3.13;;;2.23;;
15679;SDS011;15488;48.114;11.532;2023-03-12T00:49:41;2.73;;;2.00;;
15679;SDS011;15488;48.114;11.532;2023-03-12T00:52:08;2.40;;;2.03;;
15679;SDS011;15488;48.114;11.532;2023-03-12T00:54:36;3.73;;;2.30;;
15679;SDS011;15488;48.114;11.532;2023-03-12T00:57:03;2.90;;;2.07;;
15679;SDS011;15488;48.114;11.532;2023-03-12T00:59:31;8.53;;;6.07;;
15679;SDS011;15488;48.114;11.532;2023-03-12T01:01:59;7.43;;;4.10;;
15679;SDS011;15488;48.114;11.532;2023-03-12T01:04:26;3.83;;;2.60;;
15679;SDS011;15488;48.114;11.532;2023-03-12T01:06:55;5.47;;;3.83;;
15679;SDS011;15488;48.114;11.532;2023-03-12T01:09:22;3.67;;;2.80;;
15679;SDS011;15488;48.114;11.532;2023-03-12T01:11:50;4.33;;;2.50;;
15679;SDS011;15488;48.114;11.532;2023-03-12T01:14:17;6.53;;;3.83;;
15679;SDS011;15488;48.114;11.532;2023-03-12T01:16:45;4.03;;;2.70;;
15679;SDS011;15488;48.114;11.532;2023-03-12T01:19:12;2.10;;;1.90;;
15679;SDS011;15488;48.114;11.532;2023-03-12T01:21:40;3.73;;;2.63;;
15679;SDS011;15488;48.114;11.532;2023-03-12T01:24:08;18.33;;;10.53;;
15679;SDS011;15488;48.114;11.532;2023-03-12T01:26:36;5.33;;;3.67;;
15679;SDS011;15488;48.114;11.532;2023-03-12T01:29:03;3.20;;;2.30;;
15679;SDS011;15488;48.114;11.532;2023-03-12T01:31:31;3.83;;;2.50;;
15679;SDS011;15488;48.114;11.532;2023-03-12T01:33:59;2.47;;;1.90;;
15679;SDS011;15488;48.114;11.532;2023-03-12T01:36:27;3.30;;;1.80;;
15679;SDS011;15488;48.114;11.532;2023-03-12T01:38:56;1.73;;;1.50;;
15679;SDS011;15488;48.114;11.532;2023-03-12T01:41:26;2.47;;;1.70;;
15679;SDS011;15488;48.114;11.532;2023-03-12T01:43:56;3.13;;;1.70;;
15679;SDS011;15488;48.114;11.532;2023-03-12T01:46:27;4.83;;;3.17;;
15679;SDS011;15488;48.114;11.532;2023-03-12T01:48:58;24.97;;;15.27;;
15679;SDS011;15488;48.114;11.532;2023-03-12T01:51:30;17.10;;;10.37;;
15679;SDS011;15488;48.114;11.532;2023-03-12T01:54:02;13.37;;;8.90;;
15679;SDS011;15488;48.114;11.532;2023-03-12T01:56:34;3.20;;;2.30;;
15679;SDS011;15488;48.114;11.532;2023-03-12T01:59:04;2.10;;;1.80;;
15679;SDS011;15488;48.114;11.532;2023-03-12T02:01:33;3.17;;;1.67;;
15679;SDS011;15488;48.114;11.532;2023-03-12T02:04:01;1.60;;;1.50;;
15679;SDS011;15488;48.114;11.532;2023-03-12T02:06:30;1.60;;;1.47;;
15679;SDS011;15488;48.114;11.532;2023-03-12T02:09:02;2.00;;;1.60;;
15679;SDS011;15488;48.114;11.532;2023-03-12T02:11:32;2.03;;;1.70;;
15679;SDS011;15488;48.114;11.532;2023-03-12T02:14:01;2.17;;;1.80;;
15679;SDS011;15488;48.114;11.532;2023-03-12T02:16:28;2.97;;;1.70;;
15679;SDS011;15488;48.114;11.532;2023-03-12T02:18:56;2.23;;;1.70;;
15679;SDS011;15488;48.114;11.532;2023-03-12T02:21:27;3.50;;;1.90;;
15679;SDS011;15488;48.114;11.532;2023-03-12T02:23:59;2.63;;;1.90;;
15679;SDS011;15488;48.114;11.532;2023-03-12T02:26:32;2.30;;;1.60;;
15679;SDS011;15488;48.114;11.532;2023-03-12T02:29:01;2.40;;;1.90;;
15679;SDS011;15488;48.114;11.532;2023-03-12T02:31:31;3.33;;;2.10;;
15679;SDS011;15488;48.114;11.532;2023-03-12T02:34:04;2.50;;;1.87;;
15679;SDS011;15488;48.114;11.532;2023-03-12T02:36:31;2.37;;;1.80;;
15679;SDS011;15488;48.114;11.532;2023-03-12T02:38:59;2.80;;;1.87;;
15679;SDS011;15488;48.114;11.532;2023-03-12T02:41:28;2.57;;;1.73;;
15679;SDS011;15488;48.114;11.532;2023-03-12T02:44:00;2.53;;;1.87;;
15679;SDS011;15488;48.114;11.532;2023-03-12T02:46:32;3.07;;;2.17;;
15679;SDS011;15488;48.114;11.532;2023-03-12T02:49:01;3.40;;;2.00;;
15679;SDS011;15488;48.114;11.532;2023-03-12T02:51:29;2.13;;;1.80;;
15679;SDS011;15488;48.114;11.532;2023-03-12T02:53:56;2.83;;;1.83;;
15679;SDS011;15488;48.114;11.532;2023-03-12T02:56:25;2.13;;;1.87;;
15679;SDS011;15488;48.114;11.532;2023-03-12T02:58:53;2.60;;;1.80;;
15679;SDS011;15488;48.114;11.532;2023-03-12T03:01:22;2.30;;;1.87;;
15679;SDS011;15488;48.114;11.532;2023-03-12T03:03:50;2.70;;;2.17;;
15679;SDS011;15488;48.114;11.532;2023-03-12T03:06:18;2.07;;;1.60;;
15679;SDS011;15488;48.114;11.532;2023-03-12T03:08:46;2.63;;;2.00;;
15679;SDS011;15488;48.114;11.532;2023-03-12T03:11:13;4.10;;;2.13;;
15679;SDS011;15488;48.114;11.532;2023-03-12T03:13:41;2.83;;;2.00;;
15679;SDS011;15488;48.114;11.532;2023-03-12T03:16:08;2.20;;;1.97;;
15679;SDS011;15488;48.114;11.532;2023-03-12T03:18:38;2.70;;;2.30;;
15679;SDS011;15488;48.114;11.532;2023-03-12T03:21:06;5.10;;;2.60;;
15679;SDS011;15488;48.114;11.532;2023-03-12T03:23:40;3.60;;;2.33;;
15679;SDS011;15488;48.114;11.532;2023-03-12T03:26:08;2.60;;;2.17;;
15679;SDS011;15488;48.114;11.532;2023-03-12T03:28:35;3.57;;;2.47;;
15679;SDS011;15488;48.114;11.532;2023-03-12T03:31:03;3.37;;;2.17;;
15679;SDS011;15488;48.114;11.532;2023-03-12T03:33:32;3.63;;;2.70;;
15679;SDS011;15488;48.114;11.532;2023-03-12T03:36:02;3.57;;;2.27;;
15679;SDS011;15488;48.114;11.532;2023-03-12T03:38:31;2.87;;;2.23;;
15679;SDS011;15488;48.114;11.532;2023-03-12T03:40:59;2.70;;;2.30;;
15679;SDS011;15488;48.114;11.532;2023-03-12T03:43:27;2.87;;;2.00;;
15679;SDS011;15488;48.114;11.532;2023-03-12T03:45:58;4.17;;;2.47;;
15679;SDS011;15488;48.114;11.532;2023-03-12T03:48:27;2.77;;;2.30;;
15679;SDS011;15488;48.114;11.532;2023-03-12T03:50:58;3.10;;;2.40;;
15679;SDS011;15488;48.114;11.532;2023-03-12T03:53:27;3.47;;;2.50;;
15679;SDS011;15488;48.114;11.532;2023-03-12T03:55:55;3.67;;;2.47;;
15679;SDS011;15488;48.114;11.532;2023-03-12T03:58:23;2.60;;;2.30;;
15679;SDS011;15488;48.114;11.532;2023-03-12T04:00:50;3.43;;;2.40;;
15679;SDS011;15488;48.114;11.532;2023-03-12T04:03:19;3.43;;;2.60;;
15679;SDS011;15488;48.114;11.532;2023-03-12T04:05:51;2.83;;;2.37;;
15679;SDS011;15488;48.114;11.532;2023-03-12T04:08:20;3.50;;;2.60;;
15679;SDS011;15488;48.114;11.532;2023-03-12T04:10:49;2.63;;;2.40;;
15679;SDS011;15488;48.114;11.532;2023-03-12T04:13:16;3.10;;;2.27;;
15679;SDS011;15488;48.114;11.532;2023-03-12T04:15:47;4.00;;;2.87;;
15679;SDS011;15488;48.114;11.532;2023-03-12T04:18:16;3.50;;;2.50;;
15679;SDS011;15488;48.114;11.532;2023-03-12T04:20:44;4.70;;;2.83;;
15679;SDS011;15488;48.114;11.532;2023-03-12T04:23:12;3.73;;;2.87;;
15679;SDS011;15488;48.114;11.532;2023-03-12T04:25:39;4.10;;;2.83;;
15679;SDS011;15488;48.114;11.532;2023-03-12T04:28:08;3.07;;;2.50;;
15679;SDS011;15488;48.114;11.532;2023-03-12T04:30:36;3.70;;;2.90;;
15679;SDS011;15488;48.114;11.532;2023-03-12T04:33:03;4.73;;;3.07;;
15679;SDS011;15488;48.114;11.532;2023-03-12T04:35:31;3.47;;;2.80;;
15679;SDS011;15488;48.114;11.532;2023-03-12T04:37:59;3.83;;;2.77;;
15679;SDS011;15488;48.114;11.532;2023-03-12T04:40:28;3.97;;;2.90;;
15679;SDS011;15488;48.114;11.532;2023-03-12T04:42:56;5.60;;;2.97;;
15679;SDS011;15488;48.114;11.532;2023-03-12T04:45:24;4.70;;;3.00;;
15679;SDS011;15488;48.114;11.532;2023-03-12T04:47:52;3.07;;;2.60;;
15679;SDS011;15488;48.114;11.532;2023-03-12T04:50:19;4.60;;;3.07;;
15679;SDS011;15488;48.114;11.532;2023-03-12T04:52:47;4.27;;;2.90;;
15679;SDS011;15488;48.114;11.532;2023-03-12T04:55:14;4.50;;;2.90;;
15679;SDS011;15488;48.114;11.532;2023-03-12T04:57:42;3.83;;;2.87;;
15679;SDS011;15488;48.114;11.532;2023-03-12T05:00:10;4.20;;;2.87;;
15679;SDS011;15488;48.114;11.532;2023-03-12T05:02:40;4.23;;;2.80;;
15679;SDS011;15488;48.114;11.532;2023-03-12T05:05:09;4.23;;;3.10;;
15679;SDS011;15488;48.114;11.532;2023-03-12T05:07:36;4.57;;;2.90;;
15679;SDS011;15488;48.114;11.532;2023-03-12T05:10:04;4.47;;;3.00;;
15679;SDS011;15488;48.114;11.532;2023-03-12T05:12:32;3.73;;;2.97;;
15679;SDS011;15488;48.114;11.532;2023-03-12T05:15:00;4.27;;;3.23;;
15679;SDS011;15488;48.114;11.532;2023-03-12T05:17:27;4.10;;;3.10;;
15679;SDS011;15488;48.114;11.532;2023-03-12T05:19:56;4.80;;;2.80;;
15679;SDS011;15488;48.114;11.532;2023-03-12T05:22:23;4.43;;;3.40;;
15679;SDS011;15488;48.114;11.532;2023-03-12T05:24:51;4.87;;;3.40;;
15679;SDS011;15488;48.114;11.532;2023-03-12T05:27:18;4.30;;;3.10;;
15679;SDS011;15488;48.114;11.532;2023-03-12T05:29:46;4.57;;;3.10;;
15679;SDS011;15488;48.114;11.532;2023-03-12T05:32:13;4.17;;;3.07;;
15679;SDS011;15488;48.114;11.532;2023-03-12T05:34:41;4.23;;;2.93;;
15679;SDS011;15488;48.114;11.532;2023-03-12T05:37:09;3.90;;;3.13;;
15679;SDS011;15488;48.114;11.532;2023-03-12T05:39:37;5.00;;;3.17;;
15679;SDS011;15488;48.114;11.532;2023-03-12T05:42:10;4.90;;;3.10;;
15679;SDS011;15488;48.114;11.532;2023-03-12T05:44:38;3.97;;;3.00;;
15679;SDS011;15488;48.114;11.532;2023-03-12T05:47:06;4.27;;;3.10;;
15679;SDS011;15488;48.114;11.532;2023-03-12T05:49:34;3.80;;;2.83;;
15679;SDS011;15488;48.114;11.532;2023-03-12T05:52:02;4.10;;;3.30;;
15679;SDS011;15488;48.114;11.532;2023-03-12T05:54:31;5.43;;;3.37;;
15679;SDS011;15488;48.114;11.532;2023-03-12T05:56:58;4.10;;;3.20;;
15679;SDS011;15488;48.114;11.532;2023-03-12T05:59:27;5.40;;;3.20;;
15679;SDS011;15488;48.114;11.532;2023-03-12T06:01:55;4.13;;;3.10;;
15679;SDS011;15488;48.114;11.532;2023-03-12T06:04:23;4.33;;;3.20;;
15679;SDS011;15488;48.114;11.532;2023-03-12T06:06:50;3.37;;;2.80;;
15679;SDS011;15488;48.114;11.532;2023-03-12T06:09:18;3.00;;;2.37;;
15679;SDS011;15488;48.114;11.532;2023-03-12T06:11:46;3.10;;;2.50;;
15679;SDS011;15488;48.114;11.532;2023-03-12T06:14:14;3.33;;;2.37;;
15679;SDS011;15488;48.114;11.532;2023-03-12T06:16:41;3.80;;;2.20;;
15679;SDS011;15488;48.114;11.532;2023-03-12T06:19:10;3.70;;;2.50;;
15679;SDS011;15488;48.114;11.532;2023-03-12T06:21:39;3.33;;;2.10;;
15679;SDS011;15488;48.114;11.532;2023-03-12T06:24:07;3.57;;;2.40;;
15679;SDS011;15488;48.114;11.532;2023-03-12T06:26:35;2.50;;;2.13;;
15679;SDS011;15488;48.114;11.532;2023-03-12T06:29:05;2.90;;;2.20;;
15679;SDS011;15488;48.114;11.532;2023-03-12T06:31:32;2.33;;;1.97;;
15679;SDS011;15488;48.114;11.532;2023-03-12T06:34:00;3.03;;;2.03;;
15679;SDS011;15488;48.114;11.532;2023-03-12T06:36:27;2.63;;;1.70;;
15679;SDS011;15488;48.114;11.532;2023-03-12T06:38:55;3.00;;;1.93;;
15679;SDS011;15488;48.114;11.532;2023-03-12T06:41:22;2.47;;;2.00;;
15679;SDS011;15488;48.114;11.532;2023-03-12T06:43:49;2.23;;;1.70;;
15679;SDS011;15488;48.114;11.532;2023-03-12T06:46:19;3.73;;;2.53;;
15679;SDS011;15488;48.114;11.532;2023-03-12T06:48:49;3.27;;;2.17;;
15679;SDS011;15488;48.114;11.532;2023-03-12T06:51:17;2.40;;;1.80;;
15679;SDS011;15488;48.114;11.532;2023-03-12T06:53:44;3.27;;;1.77;;
15679;SDS011;15488;48.114;11.532;2023-03-12T06:56:12;2.57;;;1.93;;
15679;SDS011;15488;48.114;11.532;2023-03-12T06:58:40;2.17;;;1.67;;
15679;SDS011;15488;48.114;11.532;2023-03-12T07:01:08;2.40;;;1.83;;
15679;SDS011;15488;48.114;11.532;2023-03-12T07:03:37;1.90;;;1.37;;
15679;SDS011;15488;48.114;11.532;2023-03-12T07:06:04;1.77;;;1.57;;
15679;SDS011;15488;48.114;11.532;2023-03-12T07:08:38;1.50;;;1.40;;
15679;SDS011;15488;48.114;11.532;2023-03-12T07:11:07;1.90;;;1.30;;
15679;SDS011;15488;48.114;11.532;2023-03-12T07:13:35;1.43;;;1.27;;
15679;SDS011;15488;48.114;11.532;2023-03-12T07:16:03;1.53;;;1.30;;
15679;SDS011;15488;48.114;11.532;2023-03-12T07:18:31;1.53;;;1.30;;
15679;SDS011;15488;48.114;11.532;2023-03-12T07:21:00;1.90;;;1.50;;
15679;SDS011;15488;48.114;11.532;2023-03-12T07:23:27;1.40;;;1.30;;
15679;SDS011;15488;48.114;11.532;2023-03-12T07:25:55;1.47;;;1.00;;
15679;SDS011;15488;48.114;11.532;2023-03-12T07:28:22;1.73;;;1.30;;
15679;SDS011;15488;48.114;11.532;2023-03-12T07:30:50;1.93;;;1.10;;
15679;SDS011;15488;48.114;11.532;2023-03-12T07:33:18;1.90;;;1.40;;
15679;SDS011;15488;48.114;11.532;2023-03-12T07:35:46;1.70;;;1.03;;
15679;SDS011;15488;48.114;11.532;2023-03-12T07:38:16;2.70;;;1.33;;
15679;SDS011;15488;48.114;11.532;2023-03-12T07:40:43;2.87;;;1.90;;
15679;SDS011;15488;48.114;11.532;2023-03-12T07:43:14;2.40;;;1.90;;
15679;SDS011;15488;48.114;11.532;2023-03-12T07:45:42;1.83;;;1.20;;
15679;SDS011;15488;48.114;11.532;2023-03-12T07:48:09;2.27;;;1.30;;
15679;SDS011;15488;48.114;11.532;2023-03-12T07:50:37;2.37;;;1.37;;
15679;SDS011;15488;48.114;11.532;2023-03-12T07:53:05;1.60;;;1.23;;
15679;SDS011;15488;48.114;11.532;2023-03-12T07:55:33;2.47;;;1.33;;
15679;SDS011;15488;48.114;11.532;2023-03-12T07:58:01;1.87;;;1.13;;
15679;SDS011;15488;48.114;11.532;2023-03-12T08:00:29;1.57;;;1.40;;
15679;SDS011;15488;48.114;11.532;2023-03-12T08:02:57;2.37;;;1.40;;
15679;SDS011;15488;48.114;11.532;2023-03-12T08:05:24;1.97;;;1.20;;
15679;SDS011;15488;48.114;11.532;2023-03-12T08:07:53;2.33;;;1.40;;
15679;SDS011;15488;48.114;11.532;2023-03-12T08:10:20;2.20;;;1.30;;
15679;SDS011;15488;48.114;11.532;2023-03-12T08:12:50;1.13;;;1.03;;
15679;SDS011;15488;48.114;11.532;2023-03-12T08:15:17;2.20;;;1.00;;
15679;SDS011;15488;48.114;11.532;2023-03-12T08:17:45;2.10;;;1.30;;
15679;SDS011;15488;48.114;11.532;2023-03-12T08:20:12;1.80;;;1.30;;
15679;SDS011;15488;48.114;11.532;2023-03-12T08:22:41;2.33;;;1.40;;
15679;SDS011;15488;48.114;11.532;2023-03-12T08:25:08;2.43;;;1.60;;
15679;SDS011;15488;48.114;11.532;2023-03-12T08:27:36;2.60;;;1.57;;
15679;SDS011;15488;48.114;11.532;2023-03-12T08:30:05;1.80;;;1.37;;
15679;SDS011;15488;48.114;11.532;2023-03-12T08:32:35;1.57;;;1.10;;
15679;SDS011;15488;48.114;11.532;2023-03-12T08:35:03;1.77;;;1.07;;
15679;SDS011;15488;48.114;11.532;2023-03-12T08:37:30;1.27;;;1.07;;
15679;SDS011;15488;48.114;11.532;2023-03-12T08:39:58;1.50;;;1.13;;
15679;SDS011;15488;48.114;11.532;2023-03-12T08:42:26;1.93;;;1.27;;
15679;SDS011;15488;48.114;11.532;2023-03-12T08:44:53;1.80;;;1.20;;
15679;SDS011;15488;48.114;11.532;2023-03-12T08:47:22;2.30;;;1.53;;
15679;SDS011;15488;48.114;11.532;2023-03-12T08:49:49;1.67;;;1.30;;
15679;SDS011;15488;48.114;11.532;2023-03-12T08:52:17;1.90;;;1.10;;
15679;SDS011;15488;48.114;11.532;2023-03-12T08:54:44;1.40;;;1.20;;
15679;SDS011;15488;48.114;11.532;2023-03-12T08:57:12;1.57;;;1.20;;
15679;SDS011;15488;48.114;11.532;2023-03-12T08:59:40;2.13;;;1.33;;
15679;SDS011;15488;48.114;11.532;2023-03-12T09:02:08;1.77;;;1.47;;
15679;SDS011;15488;48.114;11.532;2023-03-12T09:04:39;3.67;;;2.10;;
15679;SDS011;15488;48.114;11.532;2023-03-12T09:07:06;3.03;;;2.10;;
15679;SDS011;15488;48.114;11.532;2023-03-12T09:09:34;2.20;;;1.90;;
15679;SDS011;15488;48.114;11.532;2023-03-12T09:12:02;2.93;;;2.23;;
15679;SDS011;15488;48.114;11.532;2023-03-12T09:14:30;2.77;;;2.00;;
15679;SDS011;15488;48.114;11.532;2023-03-12T09:16:57;2.47;;;2.10;;
15679;SDS011;15488;48.114;11.532;2023-03-12T09:19:26;3.40;;;1.80;;
15679;SDS011;15488;48.114;11.532;2023-03-12T09:21:54;2.53;;;2.00;;
15679;SDS011;15488;48.114;11.532;2023-03-12T09:24:22;1.97;;;1.60;;
15679;SDS011;15488;48.114;11.532;2023-03-12T09:26:50;1.90;;;1.70;;
15679;SDS011;15488;48.114;11.532;2023-03-12T09:29:17;1.80;;;1.30;;
15679;SDS011;15488;48.114;11.532;2023-03-12T09:31:45;1.63;;;1.40;;
15679;SDS011;15488;48.114;11.532;2023-03-12T09:34:13;1.77;;;1.50;;
15679;SDS011;15488;48.114;11.532;2023-03-12T09:36:40;1.63;;;1.30;;
15679;SDS011;15488;48.114;11.532;2023-03-12T09:39:09;1.37;;;1.20;;
15679;SDS011;15488;48.114;11.532;2023-03-12T09:41:37;2.00;;;1.53;;
15679;SDS011;15488;48.114;11.532;2023-03-12T09:44:08;2.70;;;2.10;;
15679;SDS011;15488;48.114;11.532;2023-03-12T09:46:42;1.53;;;1.43;;
15679;SDS011;15488;48.114;11.532;2023-03-12T09:49:15;2.13;;;1.77;;
15679;SDS011;15488;48.114;11.532;2023-03-12T09:51:44;1.40;;;1.30;;
15679;SDS011;15488;48.114;11.532;2023-03-12T09:54:20;1.60;;;1.20;;
15679;SDS011;15488;48.114;11.532;2023-03-12T09:56:53;1.37;;;1.20;;
15679;SDS011;15488;48.114;11.532;2023-03-12T09:59:22;1.50;;;1.40;;
15679;SDS011;15488;48.114;11.532;2023-03-12T10:01:51;1.43;;;1.30;;
15679;SDS011;15488;48.114;11.532;2023-03-12T10:04:36;1.47;;;1.30;;
15679;SDS011;15488;48.114;11.532;2023-03-12T10:07:07;1.63;;;1.40;;
15679;SDS011;15488;48.114;11.532;2023-03-12T10:09:51;1.70;;;1.10;;
15679;SDS011;15488;48.114;11.532;2023-03-12T10:12:38;1.43;;;1.13;;
15679;SDS011;15488;48.114;11.532;2023-03-12T10:15:18;1.30;;;1.10;;
15679;SDS011;15488;48.114;11.532;2023-03-12T10:17:55;1.57;;;1.30;;
15679;SDS011;15488;48.114;11.532;2023-03-12T10:20:37;2.53;;;1.80;;
15679;SDS011;15488;48.114;11.532;2023-03-12T10:23:29;1.30;;;1.20;;
15679;SDS011;15488;48.114;11.532;2023-03-12T10:26:09;1.17;;;0.83;;
15679;SDS011;15488;48.114;11.532;2023-03-12T10:28:41;1.50;;;1.00;;
15679;SDS011;15488;48.114;11.532;2023-03-12T10:31:13;1.10;;;0.90;;
15679;SDS011;15488;48.114;11.532;2023-03-12T10:33:46;2.40;;;1.33;;
15679;SDS011;15488;48.114;11.532;2023-03-12T10:36:18;1.50;;;1.30;;
15679;SDS011;15488;48.114;11.532;2023-03-12T10:38:50;1.13;;;1.00;;
15679;SDS011;15488;48.114;11.532;2023-03-12T10:41:20;0.87;;;0.87;;
15679;SDS011;15488;48.114;11.532;2023-03-12T10:43:49;1.70;;;1.30;;
15679;SDS011;15488;48.114;11.532;2023-03-12T10:46:34;1.23;;;1.03;;
15679;SDS011;15488;48.114;11.532;2023-03-12T10:52:02;2.37;;;1.27;;
15679;SDS011;15488;48.114;11.532;2023-03-12T10:54:33;1.30;;;1.00;;
15679;SDS011;15488;48.114;11.532;2023-03-12T10:57:04;2.70;;;1.60;;
15679;SDS011;15488;48.114;11.532;2023-03-12T10:59:32;1.57;;;1.33;;
15679;SDS011;15488;48.114;11.532;2023-03-12T11:02:02;1.37;;;1.07;;
15679;SDS011;15488;48.114;11.532;2023-03-12T11:04:50;1.10;;;1.00;;
15679;SDS011;15488;48.114;11.532;2023-03-12T11:07:20;1.37;;;1.20;;
15679;SDS011;15488;48.114;11.532;2023-03-12T11:10:02;1.43;;;1.13;;
15679;SDS011;15488;48.114;11.532;2023-03-12T11:12:40;1.53;;;1.20;;
15679;SDS011;15488;48.114;11.532;2023-03-12T11:15:20;1.77;;;1.37;;
15679;SDS011;15488;48.114;11.532;2023-03-12T11:17:49;1.90;;;1.60;;
15679;SDS011;15488;48.114;11.532;2023-03-12T11:20:23;1.40;;;1.30;;
15679;SDS011;15488;48.114;11.532;2023-03-12T11:22:51;0.73;;;0.73;;
15679;SDS011;15488;48.114;11.532;2023-03-12T11:25:20;2.93;;;1.93;;
15679;SDS011;15488;48.114;11.532;2023-03-12T11:27:51;1.13;;;1.00;;
15679;SDS011;15488;48.114;11.532;2023-03-12T11:30:21;1.30;;;1.00;;
15679;SDS011;15488;48.114;11.532;2023-03-12T11:32:51;1.10;;;1.00;;
15679;SDS011;15488;48.114;11.532;2023-03-12T11:35:21;1.03;;;0.93;;
15679;SDS011;15488;48.114;11.532;2023-03-12T11:38:00;1.17;;;1.03;;
15679;SDS011;15488;48.114;11.532;2023-03-12T11:40:42;0.97;;;0.90;;
15679;SDS011;15488;48.114;11.532;2023-03-12T11:43:27;1.50;;;1.20;;
15679;SDS011;15488;48.114;11.532;2023-03-12T11:46:15;1.53;;;1.13;;
15679;SDS011;15488;48.114;11.532;2023-03-12T11:48:54;1.90;;;1.10;;
15679;SDS011;15488;48.114;11.532;2023-03-12T11:51:31;1.70;;;1.37;;
15679;SDS011;15488;48.114;11.532;2023-03-12T11:54:16;1.60;;;1.10;;
15679;SDS011;15488;48.114;11.532;2023-03-12T11:56:55;1.53;;;1.17;;
15679;SDS011;15488;48.114;11.532;2023-03-12T11:59:40;1.70;;;1.30;;
15679;SDS011;15488;48.114;11.532;2023-03-12T12:02:21;1.83;;;1.17;;
15679;SDS011;15488;48.114;11.532;2023-03-12T12:05:17;1.27;;;1.17;;
15679;SDS011;15488;48.114;11.532;2023-03-12T12:08:02;1.50;;;1.27;;
15679;SDS011;15488;48.114;11.532;2023-03-12T12:10:40;1.57;;;1.37;;
15679;SDS011;15488;48.114;11.532;2023-03-12T12:13:17;1.73;;;1.33;;
15679;SDS011;15488;48.114;11.532;2023-03-12T12:15:55;1.57;;;1.47;;
15679;SDS011;15488;48.114;11.532;2023-03-12T12:18:41;1.90;;;1.60;;
15679;SDS011;15488;48.114;11.532;2023-03-12T12:21:22;2.03;;;1.63;;
15679;SDS011;15488;48.114;11.532;2023-03-12T12:24:00;3.07;;;1.67;;
15679;SDS011;15488;48.114;11.532;2023-03-12T12:26:41;1.80;;;1.30;;
15679;SDS011;15488;48.114;11.532;2023-03-12T12:29:20;1.60;;;1.30;;
15679;SDS011;15488;48.114;11.532;2023-03-12T12:31:55;1.40;;;1.13;;
15679;SDS011;15488;48.114;11.532;2023-03-12T12:34:33;1.30;;;1.20;;
15679;SDS011;15488;48.114;11.532;2023-03-12T12:37:28;2.20;;;1.30;;
15679;SDS011;15488;48.114;11.532;2023-03-12T12:40:06;2.40;;;1.63;;
15679;SDS011;15488;48.114;11.532;2023-03-12T12:42:46;2.90;;;1.90;;
15679;SDS011;15488;48.114;11.532;2023-03-12T12:45:20;3.10;;;2.07;;
15679;SDS011;15488;48.114;11.532;2023-03-12T12:47:53;2.40;;;1.73;;
15679;SDS011;15488;48.114;11.532;2023-03-12T12:50:25;3.37;;;1.77;;
15679;SDS011;15488;48.114;11.532;2023-03-12T12:52:57;3.30;;;1.60;;
15679;SDS011;15488;48.114;11.532;2023-03-12T12:55:31;3.30;;;1.87;;
15679;SDS011;15488;48.114;11.532;2023-03-12T12:58:06;5.77;;;3.70;;
15679;SDS011;15488;48.114;11.532;2023-03-12T13:00:41;11.10;;;6.63;;
15679;SDS011;15488;48.114;11.532;2023-03-12T13:03:14;5.43;;;3.67;;
15679;SDS011;15488;48.114;11.532;2023-03-12T13:05:44;2.67;;;1.90;;
15679;SDS011;15488;48.114;11.532;2023-03-12T13:08:32;3.67;;;2.07;;
15679;SDS011;15488;48.114;11.532;2023-03-12T13:11:03;2.67;;;2.00;;
15679;SDS011;15488;48.114;11.532;2023-03-12T13:13:32;3.30;;;1.80;;
15679;SDS011;15488;48.114;11.532;2023-03-12T13:18:58;2.47;;;1.90;;
15679;SDS011;15488;48.114;11.532;2023-03-12T13:21:30;3.87;;;2.50;;
15679;SDS011;15488;48.114;11.532;2023-03-12T13:24:06;3.40;;;1.90;;
15679;SDS011;15488;48.114;11.532;2023-03-12T13:26:45;2.63;;;1.67;;
15679;SDS011;15488;48.114;11.532;2023-03-12T13:29:21;2.00;;;1.70;;
15679;SDS011;15488;48.114;11.532;2023-03-12T13:32:01;2.47;;;1.97;;
15679;SDS011;15488;48.114;11.532;2023-03-12T13:37:28;2.77;;;1.80;;
15679;SDS011;15488;48.114;11.532;2023-03-12T13:43:41;2.83;;;1.90;;
15679;SDS011;15488;48.114;11.532;2023-03-12T13:46:21;2.20;;;1.57;;
15679;SDS011;15488;48.114;11.532;2023-03-12T13:51:55;1.83;;;1.50;;
15679;SDS011;15488;48.114;11.532;2023-03-12T13:54:27;2.20;;;1.40;;
15679;SDS011;15488;48.114;11.532;2023-03-12T13:57:01;2.03;;;1.83;;
15679;SDS011;15488;48.114;11.532;2023-03-12T13:59:35;5.07;;;3.93;;
15679;SDS011;15488;48.114;11.532;2023-03-12T14:02:11;4.63;;;4.03;;
15679;SDS011;15488;48.114;11.532;2023-03-12T14:04:46;5.13;;;2.40;;
15679;SDS011;15488;48.114;11.532;2023-03-12T14:07:20;6.67;;;3.57;;
15679;SDS011;15488;48.114;11.532;2023-03-12T14:10:01;3.43;;;2.70;;
15679;SDS011;15488;48.114;11.532;2023-03-12T14:12:38;9.40;;;6.40;;
15679;SDS011;15488;48.114;11.532;2023-03-12T14:15:20;4.40;;;2.90;;
15679;SDS011;15488;48.114;11.532;2023-03-12T14:17:55;6.97;;;4.30;;
15679;SDS011;15488;48.114;11.532;2023-03-12T14:20:25;5.97;;;4.10;;
15679;SDS011;15488;48.114;11.532;2023-03-12T14:22:56;12.13;;;9.10;;
15679;SDS011;15488;48.114;11.532;2023-03-12T14:25:30;4.27;;;3.40;;
15679;SDS011;15488;48.114;11.532;2023-03-12T14:28:00;1.60;;;1.40;;
15679;SDS011;15488;48.114;11.532;2023-03-12T14:30:32;2.17;;;1.40;;
15679;SDS011;15488;48.114;11.532;2023-03-12T14:33:08;1.67;;;1.07;;
15679;SDS011;15488;48.114;11.532;2023-03-12T14:35:39;0.93;;;0.90;;
15679;SDS011;15488;48.114;11.532;2023-03-12T14:38:12;2.03;;;1.23;;
15679;SDS011;15488;48.114;11.532;2023-03-12T14:40:46;1.40;;;1.20;;
15679;SDS011;15488;48.114;11.532;2023-03-12T14:43:22;1.10;;;1.00;;
15679;SDS011;15488;48.114;11.532;2023-03-12T14:45:54;1.27;;;1.03;;
15679;SDS011;15488;48.114;11.532;2023-03-12T14:48:23;1.77;;;1.23;;
15679;SDS011;15488;48.114;11.532;2023-03-12T14:50:54;3.00;;;1.33;;
15679;SDS011;15488;48.114;11.532;2023-03-12T14:53:25;6.47;;;4.70;;
15679;SDS011;15488;48.114;11.532;2023-03-12T14:56:00;2.47;;;2.03;;
15679;SDS011;15488;48.114;11.532;2023-03-12T14:58:29;1.17;;;0.93;;
15679;SDS011;15488;48.114;11.532;2023-03-12T15:00:58;1.80;;;1.10;;
15679;SDS011;15488;48.114;11.532;2023-03-12T15:03:27;1.87;;;0.90;;
15679;SDS011;15488;48.114;11.532;2023-03-12T15:05:55;1.90;;;1.10;;
15679;SDS011;15488;48.114;11.532;2023-03-12T15:08:25;1.80;;;0.80;;